Weather at Chengdu Shuangliu International Airport

Public forecast

Using degrees Celsius for public forecast. Weather courtesy of forecast.io.

Current aviation weather report (METAR) for Chengdu Shuangliu International Airport

2024/06/22 12:00 (retrieved 24 minutes ago)

ZUUU 221200Z 19003MPS 9999 SCT050 31/17 Q1005 NOSIG

Aviation forecast (TAF) for Chengdu Shuangliu International Airport

2024/06/22 12:03 (retrieved 21 minutes ago)

TAF ZUUU 220902Z 2212/2312 22003MPS 6000 SCT040 TX34/2307Z TN24/2222Z